sensor_id;sensor_type;location;lat;lon;timestamp;P1;durP1;ratioP1;P2;durP2;ratioP2
34481;SDS011;20720;48.886;9.388;2023-05-23T00:01:32;18.92;;;14.30;;
34481;SDS011;20720;48.886;9.388;2023-05-23T00:04:01;21.63;;;16.50;;
34481;SDS011;20720;48.886;9.388;2023-05-23T00:06:27;20.83;;;16.90;;
34481;SDS011;20720;48.886;9.388;2023-05-23T00:08:52;24.50;;;17.45;;
34481;SDS011;20720;48.886;9.388;2023-05-23T00:11:17;24.70;;;18.80;;
34481;SDS011;20720;48.886;9.388;2023-05-23T00:13:44;27.08;;;18.38;;
34481;SDS011;20720;48.886;9.388;2023-05-23T00:16:09;28.00;;;18.45;;
34481;SDS011;20720;48.886;9.388;2023-05-23T00:18:35;25.92;;;18.33;;
34481;SDS011;20720;48.886;9.388;2023-05-23T00:21:01;25.23;;;17.83;;
34481;SDS011;20720;48.886;9.388;2023-05-23T00:23:27;26.88;;;18.38;;
34481;SDS011;20720;48.886;9.388;2023-05-23T00:25:56;25.85;;;18.40;;
34481;SDS011;20720;48.886;9.388;2023-05-23T00:28:22;30.98;;;19.70;;
34481;SDS011;20720;48.886;9.388;2023-05-23T00:30:47;22.85;;;18.38;;
34481;SDS011;20720;48.886;9.388;2023-05-23T00:33:13;31.73;;;18.67;;
34481;SDS011;20720;48.886;9.388;2023-05-23T00:35:40;24.00;;;17.70;;
34481;SDS011;20720;48.886;9.388;2023-05-23T00:38:06;26.70;;;18.98;;
34481;SDS011;20720;48.886;9.388;2023-05-23T00:40:32;25.40;;;17.60;;
34481;SDS011;20720;48.886;9.388;2023-05-23T00:42:58;24.90;;;18.63;;
34481;SDS011;20720;48.886;9.388;2023-05-23T00:45:23;28.17;;;19.38;;
34481;SDS011;20720;48.886;9.388;2023-05-23T00:47:48;26.27;;;18.52;;
34481;SDS011;20720;48.886;9.388;2023-05-23T00:50:15;26.30;;;18.70;;
34481;SDS011;20720;48.886;9.388;2023-05-23T00:52:41;24.52;;;17.67;;
34481;SDS011;20720;48.886;9.388;2023-05-23T00:55:08;26.65;;;18.13;;
34481;SDS011;20720;48.886;9.388;2023-05-23T00:57:34;24.40;;;18.08;;
34481;SDS011;20720;48.886;9.388;2023-05-23T01:00:04;24.23;;;18.05;;
34481;SDS011;20720;48.886;9.388;2023-05-23T01:02:33;33.25;;;21.80;;
34481;SDS011;20720;48.886;9.388;2023-05-23T01:05:05;40.42;;;24.55;;
34481;SDS011;20720;48.886;9.388;2023-05-23T01:07:31;34.80;;;22.98;;
34481;SDS011;20720;48.886;9.388;2023-05-23T01:09:56;33.67;;;22.17;;
34481;SDS011;20720;48.886;9.388;2023-05-23T01:12:28;30.63;;;21.48;;
34481;SDS011;20720;48.886;9.388;2023-05-23T01:15:11;32.78;;;21.65;;
34481;SDS011;20720;48.886;9.388;2023-05-23T01:20:49;34.28;;;23.23;;
34481;SDS011;20720;48.886;9.388;2023-05-23T01:28:26;32.85;;;20.83;;
34481;SDS011;20720;48.886;9.388;2023-05-23T01:30:59;27.98;;;19.92;;
34481;SDS011;20720;48.886;9.388;2023-05-23T01:33:27;29.77;;;20.85;;
34481;SDS011;20720;48.886;9.388;2023-05-23T01:35:55;30.98;;;19.65;;
34481;SDS011;20720;48.886;9.388;2023-05-23T01:38:25;31.10;;;19.80;;
34481;SDS011;20720;48.886;9.388;2023-05-23T01:40:50;33.95;;;20.80;;
34481;SDS011;20720;48.886;9.388;2023-05-23T01:43:17;35.20;;;22.15;;
34481;SDS011;20720;48.886;9.388;2023-05-23T01:45:42;41.88;;;25.55;;
34481;SDS011;20720;48.886;9.388;2023-05-23T01:48:08;36.78;;;23.15;;
34481;SDS011;20720;48.886;9.388;2023-05-23T01:50:34;34.40;;;21.40;;
34481;SDS011;20720;48.886;9.388;2023-05-23T01:53:00;32.95;;;20.70;;
34481;SDS011;20720;48.886;9.388;2023-05-23T01:55:26;30.65;;;20.00;;
34481;SDS011;20720;48.886;9.388;2023-05-23T01:57:55;29.75;;;19.20;;
34481;SDS011;20720;48.886;9.388;2023-05-23T02:00:21;30.10;;;19.77;;
34481;SDS011;20720;48.886;9.388;2023-05-23T02:02:47;31.17;;;20.98;;
34481;SDS011;20720;48.886;9.388;2023-05-23T02:05:12;29.17;;;20.98;;
34481;SDS011;20720;48.886;9.388;2023-05-23T02:07:38;30.55;;;18.80;;
34481;SDS011;20720;48.886;9.388;2023-05-23T02:10:03;34.92;;;22.33;;
34481;SDS011;20720;48.886;9.388;2023-05-23T02:12:30;33.33;;;22.08;;
34481;SDS011;20720;48.886;9.388;2023-05-23T02:14:55;35.50;;;22.77;;
34481;SDS011;20720;48.886;9.388;2023-05-23T02:17:21;32.00;;;20.63;;
34481;SDS011;20720;48.886;9.388;2023-05-23T02:19:46;33.65;;;21.58;;
34481;SDS011;20720;48.886;9.388;2023-05-23T02:22:12;42.15;;;24.65;;
34481;SDS011;20720;48.886;9.388;2023-05-23T02:24:38;36.95;;;22.63;;
34481;SDS011;20720;48.886;9.388;2023-05-23T02:27:04;34.10;;;21.80;;
34481;SDS011;20720;48.886;9.388;2023-05-23T02:29:30;32.40;;;22.63;;
34481;SDS011;20720;48.886;9.388;2023-05-23T02:31:56;30.25;;;19.92;;
34481;SDS011;20720;48.886;9.388;2023-05-23T02:34:21;35.15;;;22.13;;
34481;SDS011;20720;48.886;9.388;2023-05-23T02:36:47;39.17;;;23.40;;
34481;SDS011;20720;48.886;9.388;2023-05-23T02:39:12;40.95;;;23.38;;
34481;SDS011;20720;48.886;9.388;2023-05-23T02:41:37;34.35;;;22.27;;
34481;SDS011;20720;48.886;9.388;2023-05-23T02:44:03;37.33;;;22.55;;
34481;SDS011;20720;48.886;9.388;2023-05-23T02:46:28;40.38;;;22.73;;
34481;SDS011;20720;48.886;9.388;2023-05-23T02:48:53;36.63;;;22.77;;
34481;SDS011;20720;48.886;9.388;2023-05-23T02:51:19;43.80;;;23.50;;
34481;SDS011;20720;48.886;9.388;2023-05-23T02:53:44;35.00;;;22.58;;
34481;SDS011;20720;48.886;9.388;2023-05-23T02:56:10;35.65;;;22.55;;
34481;SDS011;20720;48.886;9.388;2023-05-23T02:58:37;34.80;;;21.98;;
34481;SDS011;20720;48.886;9.388;2023-05-23T03:01:03;39.70;;;22.75;;
34481;SDS011;20720;48.886;9.388;2023-05-23T03:03:29;35.10;;;22.10;;
34481;SDS011;20720;48.886;9.388;2023-05-23T03:05:58;34.53;;;23.25;;
34481;SDS011;20720;48.886;9.388;2023-05-23T03:08:24;33.95;;;22.45;;
34481;SDS011;20720;48.886;9.388;2023-05-23T03:10:49;36.05;;;23.48;;
34481;SDS011;20720;48.886;9.388;2023-05-23T03:13:15;41.35;;;24.40;;
34481;SDS011;20720;48.886;9.388;2023-05-23T03:15:41;32.60;;;21.35;;
34481;SDS011;20720;48.886;9.388;2023-05-23T03:18:06;38.70;;;24.60;;
34481;SDS011;20720;48.886;9.388;2023-05-23T03:20:32;35.92;;;22.73;;
34481;SDS011;20720;48.886;9.388;2023-05-23T03:22:57;35.20;;;22.95;;
34481;SDS011;20720;48.886;9.388;2023-05-23T03:25:23;33.90;;;20.40;;
34481;SDS011;20720;48.886;9.388;2023-05-23T03:27:48;37.20;;;23.35;;
34481;SDS011;20720;48.886;9.388;2023-05-23T03:30:13;43.45;;;25.63;;
34481;SDS011;20720;48.886;9.388;2023-05-23T03:32:39;43.67;;;24.67;;
34481;SDS011;20720;48.886;9.388;2023-05-23T03:35:05;36.78;;;22.88;;
34481;SDS011;20720;48.886;9.388;2023-05-23T03:37:30;40.60;;;25.20;;
34481;SDS011;20720;48.886;9.388;2023-05-23T03:39:56;40.78;;;25.08;;
34481;SDS011;20720;48.886;9.388;2023-05-23T03:42:21;37.58;;;23.75;;
34481;SDS011;20720;48.886;9.388;2023-05-23T03:44:46;42.38;;;24.70;;
34481;SDS011;20720;48.886;9.388;2023-05-23T03:47:11;37.30;;;24.73;;
34481;SDS011;20720;48.886;9.388;2023-05-23T03:49:37;47.15;;;26.13;;
34481;SDS011;20720;48.886;9.388;2023-05-23T03:52:02;49.65;;;27.23;;
34481;SDS011;20720;48.886;9.388;2023-05-23T03:54:28;47.90;;;26.88;;
34481;SDS011;20720;48.886;9.388;2023-05-23T03:56:53;50.92;;;30.45;;
34481;SDS011;20720;48.886;9.388;2023-05-23T03:59:19;58.45;;;31.58;;
34481;SDS011;20720;48.886;9.388;2023-05-23T04:01:44;48.85;;;28.85;;
34481;SDS011;20720;48.886;9.388;2023-05-23T04:04:09;55.38;;;29.77;;
34481;SDS011;20720;48.886;9.388;2023-05-23T04:06:34;51.22;;;30.58;;
34481;SDS011;20720;48.886;9.388;2023-05-23T04:09:00;55.88;;;32.60;;
34481;SDS011;20720;48.886;9.388;2023-05-23T04:11:26;58.00;;;32.80;;
34481;SDS011;20720;48.886;9.388;2023-05-23T04:13:52;71.13;;;37.65;;
34481;SDS011;20720;48.886;9.388;2023-05-23T04:16:18;68.65;;;39.45;;
34481;SDS011;20720;48.886;9.388;2023-05-23T04:18:43;75.50;;;40.67;;
34481;SDS011;20720;48.886;9.388;2023-05-23T04:21:11;80.85;;;42.33;;
34481;SDS011;20720;48.886;9.388;2023-05-23T04:23:36;71.03;;;40.63;;
34481;SDS011;20720;48.886;9.388;2023-05-23T04:26:02;74.05;;;37.97;;
34481;SDS011;20720;48.886;9.388;2023-05-23T04:28:29;69.28;;;36.53;;
34481;SDS011;20720;48.886;9.388;2023-05-23T04:30:55;65.57;;;37.05;;
34481;SDS011;20720;48.886;9.388;2023-05-23T04:33:20;62.10;;;35.35;;
34481;SDS011;20720;48.886;9.388;2023-05-23T04:35:46;65.10;;;34.83;;
34481;SDS011;20720;48.886;9.388;2023-05-23T04:38:11;59.80;;;34.58;;
34481;SDS011;20720;48.886;9.388;2023-05-23T04:40:37;63.83;;;36.63;;
34481;SDS011;20720;48.886;9.388;2023-05-23T04:43:03;70.70;;;38.58;;
34481;SDS011;20720;48.886;9.388;2023-05-23T04:45:28;70.10;;;38.70;;
34481;SDS011;20720;48.886;9.388;2023-05-23T04:47:53;70.05;;;40.05;;
34481;SDS011;20720;48.886;9.388;2023-05-23T04:50:19;74.18;;;42.15;;
34481;SDS011;20720;48.886;9.388;2023-05-23T04:52:46;76.65;;;40.47;;
34481;SDS011;20720;48.886;9.388;2023-05-23T04:55:12;66.68;;;40.97;;
34481;SDS011;20720;48.886;9.388;2023-05-23T04:57:37;80.85;;;42.00;;
34481;SDS011;20720;48.886;9.388;2023-05-23T05:00:03;73.13;;;40.95;;
34481;SDS011;20720;48.886;9.388;2023-05-23T05:02:34;73.35;;;40.65;;
34481;SDS011;20720;48.886;9.388;2023-05-23T05:05:00;71.63;;;42.72;;
34481;SDS011;20720;48.886;9.388;2023-05-23T05:07:26;71.47;;;42.78;;
34481;SDS011;20720;48.886;9.388;2023-05-23T05:09:53;72.40;;;43.17;;
34481;SDS011;20720;48.886;9.388;2023-05-23T05:12:18;70.68;;;42.78;;
34481;SDS011;20720;48.886;9.388;2023-05-23T05:14:43;68.72;;;42.35;;
34481;SDS011;20720;48.886;9.388;2023-05-23T05:17:09;76.00;;;44.97;;
34481;SDS011;20720;48.886;9.388;2023-05-23T05:19:34;75.40;;;44.20;;
34481;SDS011;20720;48.886;9.388;2023-05-23T05:21:59;69.15;;;45.65;;
34481;SDS011;20720;48.886;9.388;2023-05-23T05:24:25;73.80;;;44.45;;
34481;SDS011;20720;48.886;9.388;2023-05-23T05:26:51;75.45;;;44.42;;
34481;SDS011;20720;48.886;9.388;2023-05-23T05:29:17;67.32;;;42.85;;
34481;SDS011;20720;48.886;9.388;2023-05-23T05:31:43;72.13;;;44.60;;
34481;SDS011;20720;48.886;9.388;2023-05-23T05:34:09;70.03;;;43.28;;
34481;SDS011;20720;48.886;9.388;2023-05-23T05:36:34;64.50;;;43.20;;
34481;SDS011;20720;48.886;9.388;2023-05-23T05:39:00;69.05;;;45.13;;
34481;SDS011;20720;48.886;9.388;2023-05-23T05:41:25;65.10;;;44.17;;
34481;SDS011;20720;48.886;9.388;2023-05-23T05:43:51;70.82;;;44.50;;
34481;SDS011;20720;48.886;9.388;2023-05-23T05:46:16;65.72;;;45.28;;
34481;SDS011;20720;48.886;9.388;2023-05-23T05:48:42;66.80;;;43.60;;
34481;SDS011;20720;48.886;9.388;2023-05-23T05:51:07;71.03;;;44.75;;
34481;SDS011;20720;48.886;9.388;2023-05-23T05:53:32;70.20;;;45.53;;
34481;SDS011;20720;48.886;9.388;2023-05-23T05:55:58;63.83;;;42.20;;
34481;SDS011;20720;48.886;9.388;2023-05-23T05:58:23;65.43;;;42.53;;
34481;SDS011;20720;48.886;9.388;2023-05-23T06:00:48;65.63;;;43.38;;
34481;SDS011;20720;48.886;9.388;2023-05-23T06:03:14;68.70;;;42.45;;
34481;SDS011;20720;48.886;9.388;2023-05-23T06:05:39;65.00;;;42.53;;
34481;SDS011;20720;48.886;9.388;2023-05-23T06:08:05;59.55;;;40.50;;
34481;SDS011;20720;48.886;9.388;2023-05-23T06:10:31;60.08;;;41.75;;
34481;SDS011;20720;48.886;9.388;2023-05-23T06:12:57;56.65;;;40.38;;
34481;SDS011;20720;48.886;9.388;2023-05-23T06:15:23;56.10;;;39.53;;
34481;SDS011;20720;48.886;9.388;2023-05-23T06:17:49;59.53;;;39.58;;
34481;SDS011;20720;48.886;9.388;2023-05-23T06:20:15;60.50;;;41.10;;
34481;SDS011;20720;48.886;9.388;2023-05-23T06:22:40;57.25;;;37.63;;
34481;SDS011;20720;48.886;9.388;2023-05-23T06:25:06;57.40;;;39.35;;
34481;SDS011;20720;48.886;9.388;2023-05-23T06:27:31;55.05;;;38.88;;
34481;SDS011;20720;48.886;9.388;2023-05-23T06:29:56;53.28;;;37.95;;
34481;SDS011;20720;48.886;9.388;2023-05-23T06:32:22;53.53;;;36.72;;
34481;SDS011;20720;48.886;9.388;2023-05-23T06:34:47;53.03;;;36.17;;
34481;SDS011;20720;48.886;9.388;2023-05-23T06:37:12;49.70;;;36.83;;
34481;SDS011;20720;48.886;9.388;2023-05-23T06:39:37;47.50;;;34.63;;
34481;SDS011;20720;48.886;9.388;2023-05-23T06:42:03;49.63;;;34.45;;
34481;SDS011;20720;48.886;9.388;2023-05-23T06:44:28;50.67;;;35.45;;
34481;SDS011;20720;48.886;9.388;2023-05-23T06:46:54;46.92;;;35.42;;
34481;SDS011;20720;48.886;9.388;2023-05-23T06:49:21;46.67;;;34.00;;
34481;SDS011;20720;48.886;9.388;2023-05-23T06:51:47;47.10;;;35.60;;
34481;SDS011;20720;48.886;9.388;2023-05-23T06:54:13;46.33;;;34.10;;
34481;SDS011;20720;48.886;9.388;2023-05-23T06:56:38;47.63;;;33.65;;
34481;SDS011;20720;48.886;9.388;2023-05-23T06:59:03;45.40;;;33.50;;
34481;SDS011;20720;48.886;9.388;2023-05-23T07:01:29;49.15;;;34.70;;
34481;SDS011;20720;48.886;9.388;2023-05-23T07:03:54;47.25;;;33.60;;
34481;SDS011;20720;48.886;9.388;2023-05-23T07:06:20;45.08;;;32.95;;
34481;SDS011;20720;48.886;9.388;2023-05-23T07:08:45;45.00;;;33.08;;
34481;SDS011;20720;48.886;9.388;2023-05-23T07:11:10;47.67;;;35.00;;
34481;SDS011;20720;48.886;9.388;2023-05-23T07:13:36;49.53;;;33.17;;
34481;SDS011;20720;48.886;9.388;2023-05-23T07:16:01;42.70;;;31.88;;
34481;SDS011;20720;48.886;9.388;2023-05-23T07:18:26;44.50;;;34.47;;
34481;SDS011;20720;48.886;9.388;2023-05-23T07:20:52;45.53;;;34.85;;
34481;SDS011;20720;48.886;9.388;2023-05-23T07:23:17;49.40;;;35.90;;
34481;SDS011;20720;48.886;9.388;2023-05-23T07:25:42;48.75;;;35.33;;
34481;SDS011;20720;48.886;9.388;2023-05-23T07:28:08;46.45;;;35.72;;
34481;SDS011;20720;48.886;9.388;2023-05-23T07:30:34;43.17;;;33.65;;
34481;SDS011;20720;48.886;9.388;2023-05-23T07:32:59;48.83;;;34.58;;
34481;SDS011;20720;48.886;9.388;2023-05-23T07:35:25;41.40;;;31.73;;
34481;SDS011;20720;48.886;9.388;2023-05-23T07:37:57;40.90;;;30.05;;
34481;SDS011;20720;48.886;9.388;2023-05-23T07:40:22;37.65;;;29.83;;
34481;SDS011;20720;48.886;9.388;2023-05-23T07:42:48;38.13;;;30.27;;
34481;SDS011;20720;48.886;9.388;2023-05-23T07:45:13;38.30;;;29.08;;
34481;SDS011;20720;48.886;9.388;2023-05-23T07:47:38;35.25;;;28.20;;
34481;SDS011;20720;48.886;9.388;2023-05-23T07:50:04;35.50;;;28.67;;
34481;SDS011;20720;48.886;9.388;2023-05-23T07:52:30;34.75;;;27.73;;
34481;SDS011;20720;48.886;9.388;2023-05-23T07:54:56;31.63;;;26.27;;
34481;SDS011;20720;48.886;9.388;2023-05-23T07:57:22;33.08;;;25.77;;
34481;SDS011;20720;48.886;9.388;2023-05-23T07:59:48;29.52;;;23.40;;
34481;SDS011;20720;48.886;9.388;2023-05-23T08:02:14;25.98;;;21.58;;
34481;SDS011;20720;48.886;9.388;2023-05-23T08:04:39;22.85;;;19.20;;
34481;SDS011;20720;48.886;9.388;2023-05-23T08:07:04;26.70;;;21.02;;
34481;SDS011;20720;48.886;9.388;2023-05-23T08:09:31;26.98;;;20.48;;
34481;SDS011;20720;48.886;9.388;2023-05-23T08:11:57;23.38;;;19.00;;
34481;SDS011;20720;48.886;9.388;2023-05-23T08:14:22;24.02;;;20.33;;
34481;SDS011;20720;48.886;9.388;2023-05-23T08:16:47;28.30;;;20.25;;
34481;SDS011;20720;48.886;9.388;2023-05-23T08:19:13;25.13;;;19.77;;
34481;SDS011;20720;48.886;9.388;2023-05-23T08:21:38;22.35;;;19.20;;
34481;SDS011;20720;48.886;9.388;2023-05-23T08:24:03;22.40;;;19.95;;
34481;SDS011;20720;48.886;9.388;2023-05-23T08:26:29;22.05;;;18.30;;
34481;SDS011;20720;48.886;9.388;2023-05-23T08:28:59;21.08;;;16.67;;
34481;SDS011;20720;48.886;9.388;2023-05-23T08:31:26;22.15;;;17.98;;
34481;SDS011;20720;48.886;9.388;2023-05-23T08:33:52;19.17;;;17.13;;
34481;SDS011;20720;48.886;9.388;2023-05-23T08:36:17;18.55;;;16.50;;
34481;SDS011;20720;48.886;9.388;2023-05-23T08:38:42;17.50;;;15.70;;
34481;SDS011;20720;48.886;9.388;2023-05-23T08:41:10;19.95;;;16.42;;
34481;SDS011;20720;48.886;9.388;2023-05-23T08:43:42;17.33;;;15.52;;
34481;SDS011;20720;48.886;9.388;2023-05-23T08:46:08;18.13;;;15.00;;
34481;SDS011;20720;48.886;9.388;2023-05-23T08:48:33;17.38;;;14.18;;
34481;SDS011;20720;48.886;9.388;2023-05-23T08:50:58;18.52;;;15.88;;
34481;SDS011;20720;48.886;9.388;2023-05-23T08:53:26;21.70;;;15.70;;
34481;SDS011;20720;48.886;9.388;2023-05-23T08:55:53;16.55;;;14.85;;
34481;SDS011;20720;48.886;9.388;2023-05-23T08:58:22;19.33;;;14.85;;
34481;SDS011;20720;48.886;9.388;2023-05-23T09:00:53;17.02;;;14.65;;
34481;SDS011;20720;48.886;9.388;2023-05-23T09:03:19;21.17;;;15.15;;
34481;SDS011;20720;48.886;9.388;2023-05-23T09:05:45;14.27;;;12.77;;
34481;SDS011;20720;48.886;9.388;2023-05-23T09:08:11;14.57;;;12.95;;
34481;SDS011;20720;48.886;9.388;2023-05-23T09:10:37;16.38;;;13.10;;
34481;SDS011;20720;48.886;9.388;2023-05-23T09:13:03;14.82;;;13.23;;
34481;SDS011;20720;48.886;9.388;2023-05-23T09:15:29;14.20;;;12.70;;
34481;SDS011;20720;48.886;9.388;2023-05-23T09:17:58;14.02;;;11.88;;
34481;SDS011;20720;48.886;9.388;2023-05-23T09:20:26;14.30;;;12.73;;
34481;SDS011;20720;48.886;9.388;2023-05-23T09:22:53;18.25;;;12.90;;
34481;SDS011;20720;48.886;9.388;2023-05-23T09:25:19;16.55;;;13.65;;
34481;SDS011;20720;48.886;9.388;2023-05-23T09:27:44;13.88;;;12.38;;
34481;SDS011;20720;48.886;9.388;2023-05-23T09:30:10;13.95;;;11.15;;
34481;SDS011;20720;48.886;9.388;2023-05-23T09:32:36;14.77;;;11.10;;
34481;SDS011;20720;48.886;9.388;2023-05-23T09:35:02;12.25;;;10.95;;
34481;SDS011;20720;48.886;9.388;2023-05-23T09:37:30;11.85;;;9.95;;
34481;SDS011;20720;48.886;9.388;2023-05-23T09:39:57;13.57;;;10.88;;
34481;SDS011;20720;48.886;9.388;2023-05-23T09:42:23;12.27;;;10.85;;
34481;SDS011;20720;48.886;9.388;2023-05-23T09:44:50;12.65;;;10.15;;
34481;SDS011;20720;48.886;9.388;2023-05-23T09:47:15;13.13;;;10.45;;
34481;SDS011;20720;48.886;9.388;2023-05-23T09:49:44;15.85;;;10.75;;
34481;SDS011;20720;48.886;9.388;2023-05-23T09:52:10;13.90;;;10.60;;
34481;SDS011;20720;48.886;9.388;2023-05-23T09:54:36;12.35;;;10.25;;
34481;SDS011;20720;48.886;9.388;2023-05-23T09:57:01;13.07;;;10.70;;
34481;SDS011;20720;48.886;9.388;2023-05-23T09:59:30;13.10;;;10.70;;
34481;SDS011;20720;48.886;9.388;2023-05-23T10:01:59;11.45;;;10.25;;
34481;SDS011;20720;48.886;9.388;2023-05-23T10:04:29;10.85;;;9.70;;
34481;SDS011;20720;48.886;9.388;2023-05-23T10:07:00;14.85;;;10.18;;
34481;SDS011;20720;48.886;9.388;2023-05-23T10:09:31;10.73;;;9.50;;
34481;SDS011;20720;48.886;9.388;2023-05-23T10:14:56;11.40;;;10.02;;
34481;SDS011;20720;48.886;9.388;2023-05-23T10:20:03;10.00;;;9.00;;
34481;SDS011;20720;48.886;9.388;2023-05-23T10:22:32;10.23;;;9.13;;
34481;SDS011;20720;48.886;9.388;2023-05-23T10:25:00;10.30;;;9.20;;
34481;SDS011;20720;48.886;9.388;2023-05-23T10:27:26;10.73;;;8.88;;
34481;SDS011;20720;48.886;9.388;2023-05-23T10:29:51;10.55;;;9.45;;
34481;SDS011;20720;48.886;9.388;2023-05-23T10:32:17;10.73;;;9.63;;
34481;SDS011;20720;48.886;9.388;2023-05-23T10:34:52;10.45;;;8.50;;
34481;SDS011;20720;48.886;9.388;2023-05-23T10:37:23;10.07;;;8.82;;
34481;SDS011;20720;48.886;9.388;2023-05-23T10:42:51;11.60;;;8.85;;
34481;SDS011;20720;48.886;9.388;2023-05-23T10:45:41;10.27;;;9.00;;
34481;SDS011;20720;48.886;9.388;2023-05-23T10:50:45;10.18;;;9.00;;
34481;SDS011;20720;48.886;9.388;2023-05-23T10:53:11;11.45;;;8.60;;
34481;SDS011;20720;48.886;9.388;2023-05-23T10:55:40;10.50;;;9.15;;
34481;SDS011;20720;48.886;9.388;2023-05-23T10:58:14;10.02;;;8.75;;
34481;SDS011;20720;48.886;9.388;2023-05-23T11:00:49;12.43;;;9.25;;
34481;SDS011;20720;48.886;9.388;2023-05-23T11:03:16;10.00;;;8.65;;
34481;SDS011;20720;48.886;9.388;2023-05-23T11:05:46;11.57;;;8.70;;
34481;SDS011;20720;48.886;9.388;2023-05-23T11:08:16;9.82;;;8.07;;
34481;SDS011;20720;48.886;9.388;2023-05-23T11:13:20;12.52;;;8.02;;
34481;SDS011;20720;48.886;9.388;2023-05-23T11:15:47;9.10;;;7.70;;
34481;SDS011;20720;48.886;9.388;2023-05-23T11:18:22;9.05;;;7.63;;
34481;SDS011;20720;48.886;9.388;2023-05-23T11:20:51;8.73;;;7.60;;
34481;SDS011;20720;48.886;9.388;2023-05-23T11:23:17;9.20;;;7.68;;
34481;SDS011;20720;48.886;9.388;2023-05-23T11:25:44;10.95;;;7.78;;
34481;SDS011;20720;48.886;9.388;2023-05-23T11:28:12;9.43;;;7.10;;
34481;SDS011;20720;48.886;9.388;2023-05-23T11:30:37;11.15;;;7.93;;
34481;SDS011;20720;48.886;9.388;2023-05-23T11:33:07;9.50;;;8.13;;
34481;SDS011;20720;48.886;9.388;2023-05-23T11:35:37;8.10;;;7.30;;
34481;SDS011;20720;48.886;9.388;2023-05-23T11:38:03;8.43;;;7.60;;
34481;SDS011;20720;48.886;9.388;2023-05-23T11:40:30;8.75;;;7.28;;
34481;SDS011;20720;48.886;9.388;2023-05-23T11:42:57;8.65;;;7.75;;
34481;SDS011;20720;48.886;9.388;2023-05-23T11:45:24;8.75;;;7.85;;
34481;SDS011;20720;48.886;9.388;2023-05-23T11:47:51;8.82;;;7.40;;
34481;SDS011;20720;48.886;9.388;2023-05-23T11:50:16;7.97;;;6.88;;
34481;SDS011;20720;48.886;9.388;2023-05-23T11:52:44;7.97;;;7.18;;
34481;SDS011;20720;48.886;9.388;2023-05-23T11:55:15;8.13;;;6.90;;
34481;SDS011;20720;48.886;9.388;2023-05-23T11:57:44;6.95;;;6.25;;
34481;SDS011;20720;48.886;9.388;2023-05-23T12:00:10;7.75;;;6.28;;
34481;SDS011;20720;48.886;9.388;2023-05-23T12:02:42;7.65;;;6.05;;
34481;SDS011;20720;48.886;9.388;2023-05-23T12:05:10;8.07;;;7.28;;
34481;SDS011;20720;48.886;9.388;2023-05-23T12:07:43;7.45;;;6.65;;
34481;SDS011;20720;48.886;9.388;2023-05-23T12:10:15;10.55;;;6.20;;
34481;SDS011;20720;48.886;9.388;2023-05-23T12:12:42;6.97;;;6.05;;
34481;SDS011;20720;48.886;9.388;2023-05-23T12:15:08;7.25;;;6.28;;
34481;SDS011;20720;48.886;9.388;2023-05-23T12:17:35;9.23;;;5.93;;
34481;SDS011;20720;48.886;9.388;2023-05-23T12:20:02;6.70;;;5.50;;
34481;SDS011;20720;48.886;9.388;2023-05-23T12:22:29;6.22;;;5.63;;
34481;SDS011;20720;48.886;9.388;2023-05-23T12:24:54;6.78;;;5.68;;
34481;SDS011;20720;48.886;9.388;2023-05-23T12:27:26;5.72;;;4.70;;
34481;SDS011;20720;48.886;9.388;2023-05-23T12:30:03;6.70;;;5.10;;
34481;SDS011;20720;48.886;9.388;2023-05-23T12:32:33;7.30;;;5.50;;
34481;SDS011;20720;48.886;9.388;2023-05-23T12:34:59;5.50;;;4.63;;
34481;SDS011;20720;48.886;9.388;2023-05-23T12:37:24;5.03;;;4.53;;
34481;SDS011;20720;48.886;9.388;2023-05-23T12:39:50;4.88;;;3.95;;
34481;SDS011;20720;48.886;9.388;2023-05-23T12:42:15;4.95;;;4.25;;
34481;SDS011;20720;48.886;9.388;2023-05-23T12:44:40;5.28;;;4.65;;
34481;SDS011;20720;48.886;9.388;2023-05-23T12:47:07;4.80;;;4.40;;
34481;SDS011;20720;48.886;9.388;2023-05-23T12:49:34;5.30;;;4.80;;
34481;SDS011;20720;48.886;9.388;2023-05-23T12:51:59;5.20;;;4.60;;
34481;SDS011;20720;48.886;9.388;2023-05-23T12:54:25;6.13;;;4.90;;
34481;SDS011;20720;48.886;9.388;2023-05-23T12:56:50;5.28;;;4.70;;
34481;SDS011;20720;48.886;9.388;2023-05-23T12:59:15;5.07;;;4.57;;
34481;SDS011;20720;48.886;9.388;2023-05-23T13:01:40;5.10;;;4.45;;
34481;SDS011;20720;48.886;9.388;2023-05-23T13:04:06;4.65;;;4.10;;
34481;SDS011;20720;48.886;9.388;2023-05-23T13:06:31;4.40;;;3.70;;
34481;SDS011;20720;48.886;9.388;2023-05-23T13:08:57;4.95;;;3.83;;
34481;SDS011;20720;48.886;9.388;2023-05-23T13:11:23;4.57;;;3.80;;
34481;SDS011;20720;48.886;9.388;2023-05-23T13:13:49;5.93;;;4.00;;
34481;SDS011;20720;48.886;9.388;2023-05-23T13:16:15;5.43;;;4.13;;
34481;SDS011;20720;48.886;9.388;2023-05-23T13:18:40;4.95;;;3.92;;
34481;SDS011;20720;48.886;9.388;2023-05-23T13:21:06;4.70;;;3.80;;
34481;SDS011;20720;48.886;9.388;2023-05-23T13:23:31;5.20;;;3.83;;
34481;SDS011;20720;48.886;9.388;2023-05-23T13:25:57;6.68;;;4.63;;
34481;SDS011;20720;48.886;9.388;2023-05-23T13:28:22;3.95;;;3.38;;
34481;SDS011;20720;48.886;9.388;2023-05-23T13:30:48;5.47;;;3.20;;
34481;SDS011;20720;48.886;9.388;2023-05-23T13:33:14;4.18;;;3.42;;
34481;SDS011;20720;48.886;9.388;2023-05-23T13:35:39;3.85;;;3.40;;
34481;SDS011;20720;48.886;9.388;2023-05-23T13:38:04;4.07;;;3.42;;
34481;SDS011;20720;48.886;9.388;2023-05-23T13:40:30;6.30;;;3.35;;
34481;SDS011;20720;48.886;9.388;2023-05-23T13:42:55;4.72;;;3.38;;
34481;SDS011;20720;48.886;9.388;2023-05-23T13:45:21;3.92;;;3.10;;
34481;SDS011;20720;48.886;9.388;2023-05-23T13:47:47;3.50;;;3.20;;
34481;SDS011;20720;48.886;9.388;2023-05-23T13:50:12;3.58;;;3.00;;
34481;SDS011;20720;48.886;9.388;2023-05-23T13:52:38;3.50;;;2.97;;
34481;SDS011;20720;48.886;9.388;2023-05-23T13:55:03;5.93;;;3.15;;
34481;SDS011;20720;48.886;9.388;2023-05-23T13:57:29;6.15;;;2.90;;
34481;SDS011;20720;48.886;9.388;2023-05-23T13:59:55;3.88;;;2.80;;
34481;SDS011;20720;48.886;9.388;2023-05-23T14:02:20;5.13;;;3.10;;
34481;SDS011;20720;48.886;9.388;2023-05-23T14:04:47;3.58;;;2.80;;
34481;SDS011;20720;48.886;9.388;2023-05-23T14:07:12;3.50;;;2.90;;
34481;SDS011;20720;48.886;9.388;2023-05-23T14:09:38;4.50;;;3.00;;
34481;SDS011;20720;48.886;9.388;2023-05-23T14:12:03;2.60;;;2.30;;
34481;SDS011;20720;48.886;9.388;2023-05-23T14:14:29;3.88;;;2.70;;
34481;SDS011;20720;48.886;9.388;2023-05-23T14:16:55;2.75;;;2.10;;
34481;SDS011;20720;48.886;9.388;2023-05-23T14:19:21;2.97;;;2.60;;
34481;SDS011;20720;48.886;9.388;2023-05-23T14:21:46;3.10;;;2.38;;
34481;SDS011;20720;48.886;9.388;2023-05-23T14:24:12;3.10;;;2.33;;
34481;SDS011;20720;48.886;9.388;2023-05-23T14:26:37;3.25;;;2.50;;
34481;SDS011;20720;48.886;9.388;2023-05-23T14:29:02;3.20;;;2.70;;
34481;SDS011;20720;48.886;9.388;2023-05-23T14:31:28;3.37;;;2.20;;
34481;SDS011;20720;48.886;9.388;2023-05-23T14:33:53;2.67;;;2.20;;
34481;SDS011;20720;48.886;9.388;2023-05-23T14:36:18;2.67;;;2.03;;
34481;SDS011;20720;48.886;9.388;2023-05-23T14:38:44;2.90;;;2.22;;
34481;SDS011;20720;48.886;9.388;2023-05-23T14:41:10;2.90;;;2.28;;
34481;SDS011;20720;48.886;9.388;2023-05-23T14:43:36;4.60;;;2.38;;
34481;SDS011;20720;48.886;9.388;2023-05-23T14:46:01;3.35;;;2.45;;